createdAt,value
2018-09-20T00:02:03.430Z,30.65
2018-09-20T00:04:31.478Z,23.57
2018-09-20T00:06:59.553Z,28.95
2018-09-20T00:09:27.608Z,21.93
2018-09-20T00:11:55.700Z,20.30
2018-09-20T00:14:23.812Z,21.97
2018-09-20T00:16:51.869Z,29.72
2018-09-20T00:19:20.004Z,22.90
2018-09-20T00:21:48.116Z,22.85
2018-09-20T00:24:16.197Z,18.23
2018-09-20T00:26:44.300Z,18.52
2018-09-20T00:29:12.372Z,21.20
2018-09-20T00:31:40.459Z,17.90
2018-09-20T00:34:08.522Z,18.15
2018-09-20T00:36:36.592Z,22.87
2018-09-20T00:39:08.995Z,24.87
2018-09-20T00:41:37.056Z,18.67
2018-09-20T00:44:05.104Z,18.05
2018-09-20T00:46:33.192Z,22.62
2018-09-20T00:49:01.252Z,20.57
2018-09-20T00:51:29.317Z,16.42
2018-09-20T00:53:57.394Z,17.62
2018-09-20T00:56:25.441Z,15.23
2018-09-20T00:58:53.625Z,17.60
2018-09-20T01:01:21.695Z,22.73
2018-09-20T01:03:49.760Z,25.08
2018-09-20T01:06:17.803Z,14.68
2018-09-20T01:08:45.916Z,13.40
2018-09-20T01:11:13.976Z,15.85
2018-09-20T01:13:42.064Z,20.82
2018-09-20T01:16:10.138Z,16.10
2018-09-20T01:18:38.186Z,18.85
2018-09-20T01:21:06.418Z,18.02
2018-09-20T01:23:34.475Z,20.30
2018-09-20T01:26:02.536Z,18.17
2018-09-20T01:28:30.599Z,18.07
2018-09-20T01:30:58.740Z,18.65
2018-09-20T01:33:26.796Z,22.15
2018-09-20T01:35:54.889Z,17.40
2018-09-20T01:38:22.937Z,12.95
2018-09-20T01:40:51.021Z,15.72
2018-09-20T01:43:19.095Z,17.27
2018-09-20T01:45:47.157Z,14.07
2018-09-20T01:48:15.220Z,13.50
2018-09-20T01:50:43.271Z,15.35
2018-09-20T01:53:11.379Z,19.20
2018-09-20T01:55:39.439Z,13.83
2018-09-20T01:58:07.520Z,21.57
2018-09-20T02:00:35.578Z,24.50
2018-09-20T02:03:03.687Z,17.57
2018-09-20T02:05:31.732Z,15.08
2018-09-20T02:07:59.792Z,17.42
2018-09-20T02:10:27.847Z,12.45
2018-09-20T02:12:55.939Z,12.60
2018-09-20T02:15:23.997Z,10.60
2018-09-20T02:17:52.076Z,18.15
2018-09-20T02:20:20.163Z,10.75
2018-09-20T02:22:48.220Z,15.80
2018-09-20T02:25:16.281Z,14.13
2018-09-20T02:27:44.448Z,15.00
2018-09-20T02:30:12.512Z,8.98
2018-09-20T02:32:40.576Z,15.93
2018-09-20T02:35:08.635Z,19.32
2018-09-20T02:37:36.697Z,18.35
2018-09-20T02:40:04.766Z,16.52
2018-09-20T02:42:32.874Z,19.85
2018-09-20T02:45:00.927Z,14.53
2018-09-20T02:47:29.009Z,15.20
2018-09-20T02:49:57.072Z,16.57
2018-09-20T02:52:25.156Z,14.47
2018-09-20T02:54:53.237Z,19.75
2018-09-20T02:57:21.293Z,17.85
2018-09-20T02:59:49.353Z,18.12
2018-09-20T03:02:17.437Z,21.50
2018-09-20T03:04:45.516Z,22.35
2018-09-20T03:07:13.575Z,13.28
2018-09-20T03:09:41.620Z,11.68
2018-09-20T03:12:09.663Z,14.58
2018-09-20T03:14:37.797Z,13.30
2018-09-20T03:17:05.838Z,12.93
2018-09-20T03:19:33.896Z,12.30
2018-09-20T03:22:02.185Z,16.40
2018-09-20T03:24:30.268Z,12.78
2018-09-20T03:26:58.532Z,11.70
2018-09-20T03:29:26.643Z,14.63
2018-09-20T03:31:54.797Z,17.35
2018-09-20T03:34:22.867Z,18.23
2018-09-20T03:36:50.924Z,11.95
2018-09-20T03:39:19.016Z,16.05
2018-09-20T03:41:47.077Z,14.73
2018-09-20T03:44:15.152Z,12.95
2018-09-20T03:46:43.200Z,13.43
2018-09-20T03:49:11.289Z,12.10
2018-09-20T03:51:39.347Z,17.65
2018-09-20T03:54:07.404Z,19.60
2018-09-20T03:56:35.452Z,11.30
2018-09-20T03:59:03.563Z,14.43
2018-09-20T04:01:31.640Z,17.30
2018-09-20T04:03:59.815Z,18.55
2018-09-20T04:06:27.835Z,20.12
2018-09-20T04:08:55.908Z,12.53
2018-09-20T04:11:23.972Z,16.37
2018-09-20T04:13:52.090Z,22.30
2018-09-20T04:16:20.133Z,15.23
2018-09-20T04:18:48.196Z,14.90
2018-09-20T04:21:23.456Z,8.80
2018-09-20T04:23:51.536Z,15.50
2018-09-20T04:26:19.600Z,11.73
2018-09-20T04:28:47.676Z,13.20
2018-09-20T04:31:15.745Z,9.63
2018-09-20T04:33:43.798Z,11.03
2018-09-20T04:36:11.871Z,13.43
2018-09-20T04:38:39.948Z,12.18
2018-09-20T04:41:08.003Z,13.50
2018-09-20T04:43:36.096Z,10.70
2018-09-20T04:46:04.168Z,13.03
2018-09-20T04:48:32.219Z,12.18
2018-09-20T04:51:00.280Z,14.95
2018-09-20T04:53:28.409Z,12.85
2018-09-20T04:55:56.448Z,13.20
2018-09-20T04:58:24.516Z,12.95
2018-09-20T05:00:52.593Z,13.05
2018-09-20T05:03:20.657Z,13.72
2018-09-20T05:05:48.829Z,11.08
2018-09-20T05:08:16.887Z,7.33
2018-09-20T05:10:45.092Z,11.93
2018-09-20T05:13:13.305Z,14.07
2018-09-20T05:15:41.376Z,18.30
2018-09-20T05:18:09.449Z,13.83
2018-09-20T05:20:37.554Z,11.48
2018-09-20T05:23:05.615Z,9.33
2018-09-20T05:25:33.684Z,13.22
2018-09-20T05:28:01.760Z,14.38
2018-09-20T05:30:30.131Z,12.15
2018-09-20T05:32:58.396Z,9.15
2018-09-20T05:35:26.838Z,12.18
2018-09-20T05:37:54.851Z,13.08
2018-09-20T05:40:22.973Z,13.13
2018-09-20T05:42:51.492Z,13.80
2018-09-20T05:45:19.607Z,13.43
2018-09-20T05:47:47.744Z,13.45
2018-09-20T05:50:15.804Z,8.20
2018-09-20T05:52:43.864Z,9.80
2018-09-20T05:55:12.075Z,15.03
2018-09-20T05:57:40.252Z,13.22
2018-09-20T06:00:08.613Z,12.00
2018-09-20T06:02:36.867Z,12.50
2018-09-20T06:05:05.249Z,12.40
2018-09-20T06:07:33.365Z,12.37
2018-09-20T06:10:01.430Z,33.65
2018-09-20T06:12:29.484Z,11.93
2018-09-20T06:14:57.562Z,10.20
2018-09-20T06:17:26.044Z,9.60
2018-09-20T06:19:54.296Z,13.93
2018-09-20T06:22:22.376Z,9.58
2018-09-20T06:24:50.424Z,11.93
2018-09-20T06:27:18.480Z,10.32
2018-09-20T06:29:46.576Z,8.55
2018-09-20T06:32:14.653Z,13.62
2018-09-20T06:34:42.732Z,18.92
2018-09-20T06:37:10.782Z,12.00
2018-09-20T06:39:38.844Z,12.33
2018-09-20T06:42:06.896Z,9.83
2018-09-20T06:44:35.057Z,16.07
2018-09-20T06:47:03.170Z,15.58
2018-09-20T06:49:31.256Z,13.98
2018-09-20T06:51:59.333Z,15.60
2018-09-20T06:54:27.388Z,12.43
2018-09-20T06:56:55.444Z,11.80
2018-09-20T06:59:23.529Z,15.60
2018-09-20T07:01:51.601Z,11.43
2018-09-20T07:04:19.695Z,13.00
2018-09-20T07:06:48.013Z,14.03
2018-09-20T07:09:16.109Z,18.27
2018-09-20T07:11:44.183Z,14.18
2018-09-20T07:14:12.241Z,18.00
2018-09-20T07:16:40.324Z,14.15
2018-09-20T07:19:08.463Z,13.90
2018-09-20T07:21:36.477Z,26.77
2018-09-20T07:24:04.536Z,20.70
2018-09-20T07:26:32.609Z,20.68
2018-09-20T07:29:00.666Z,26.10
2018-09-20T07:31:28.736Z,22.15
2018-09-20T07:33:56.784Z,19.95
2018-09-20T07:36:24.840Z,22.25
2018-09-20T07:38:52.956Z,20.97
2018-09-20T07:41:21.004Z,17.23
2018-09-20T07:43:49.056Z,18.37
2018-09-20T07:46:17.128Z,26.55
2018-09-20T07:48:45.187Z,16.12
2018-09-20T07:51:13.244Z,19.25
2018-09-20T07:53:41.348Z,18.45
2018-09-20T07:56:09.344Z,24.47
2018-09-20T07:58:37.392Z,11.60
2018-09-20T08:01:05.472Z,16.10
2018-09-20T08:03:33.529Z,12.47
2018-09-20T08:06:01.572Z,22.42
2018-09-20T08:08:29.640Z,31.12
2018-09-20T08:10:57.707Z,25.55
2018-09-20T08:13:25.783Z,19.98
2018-09-20T08:15:53.845Z,27.10
2018-09-20T08:18:21.912Z,29.65
2018-09-20T08:20:49.976Z,23.98
2018-09-20T08:23:18.036Z,29.37
2018-09-20T08:25:46.092Z,22.87
2018-09-20T08:28:14.151Z,25.02
2018-09-20T08:30:42.229Z,21.42
2018-09-20T08:33:10.376Z,15.00
2018-09-20T08:35:38.429Z,20.50
2018-09-20T08:38:06.510Z,24.75
2018-09-20T08:40:34.566Z,26.23
2018-09-20T08:43:02.647Z,24.82
2018-09-20T08:45:30.704Z,28.30
2018-09-20T08:47:58.760Z,25.45
2018-09-20T08:50:26.808Z,22.58
2018-09-20T08:52:54.881Z,19.50
2018-09-20T08:55:22.924Z,23.00
2018-09-20T08:57:55.392Z,18.67
2018-09-20T09:00:23.477Z,17.27
2018-09-20T09:02:51.555Z,15.88
2018-09-20T09:05:19.616Z,18.55
2018-09-20T09:07:47.688Z,34.33
2018-09-20T09:10:15.764Z,24.65
2018-09-20T09:12:43.845Z,24.85
2018-09-20T09:15:12.051Z,32.75
2018-09-20T09:17:40.130Z,21.90
2018-09-20T09:20:08.213Z,29.07
2018-09-20T09:22:36.275Z,21.48
2018-09-20T09:25:04.417Z,27.50
2018-09-20T09:27:32.480Z,18.05
2018-09-20T09:30:00.537Z,26.15
2018-09-20T09:32:28.649Z,25.57
2018-09-20T09:34:56.717Z,24.23
2018-09-20T09:37:24.781Z,25.15
2018-09-20T09:39:52.866Z,28.07
2018-09-20T09:42:20.924Z,41.53
2018-09-20T09:44:49.019Z,24.12
2018-09-20T09:47:17.084Z,29.60
2018-09-20T09:49:45.160Z,28.52
2018-09-20T09:52:13.225Z,31.17
2018-09-20T09:54:41.339Z,28.30
2018-09-20T09:57:09.384Z,29.35
2018-09-20T09:59:37.479Z,24.82
2018-09-20T10:02:05.540Z,26.87
2018-09-20T10:04:33.633Z,24.05
2018-09-20T10:07:01.996Z,21.55
2018-09-20T10:09:30.036Z,22.60
2018-09-20T10:11:58.201Z,32.13
2018-09-20T10:14:58.146Z,24.18
2018-09-20T10:17:26.223Z,24.30
2018-09-20T10:19:54.306Z,31.52
2018-09-20T10:22:22.379Z,22.25
2018-09-20T10:24:50.448Z,26.62
2018-09-20T10:27:18.513Z,31.90
2018-09-20T10:29:46.564Z,25.80
2018-09-20T10:32:14.622Z,24.80
2018-09-20T10:34:42.704Z,22.70
2018-09-20T10:37:10.825Z,18.75
2018-09-20T10:39:38.895Z,38.80
2018-09-20T10:42:06.972Z,33.78
2018-09-20T10:44:35.044Z,41.53
2018-09-20T10:47:03.121Z,40.52
2018-09-20T10:49:31.198Z,34.05
2018-09-20T10:51:59.245Z,45.05
2018-09-20T10:54:27.363Z,38.85
2018-09-20T10:56:55.380Z,47.08
2018-09-20T10:59:23.454Z,34.95
2018-09-20T11:01:51.524Z,45.33
2018-09-20T11:04:19.620Z,37.00
2018-09-20T11:06:47.684Z,31.57
2018-09-20T11:09:15.744Z,32.90
2018-09-20T11:11:43.801Z,34.55
2018-09-20T11:14:11.873Z,32.53
2018-09-20T11:16:40.164Z,38.45
2018-09-20T11:19:08.238Z,26.55
2018-09-20T11:21:36.319Z,22.22
2018-09-20T11:24:04.435Z,23.12
2018-09-20T11:26:32.517Z,24.43
2018-09-20T11:29:00.590Z,29.35
2018-09-20T11:31:28.694Z,32.48
2018-09-20T11:33:56.756Z,27.13
2018-09-20T11:36:24.830Z,27.35
2018-09-20T11:38:52.888Z,28.67
2018-09-20T11:41:20.942Z,37.38
2018-09-20T11:43:49.025Z,39.55
2018-09-20T11:46:17.107Z,24.32
2018-09-20T11:48:45.240Z,17.80
2018-09-20T11:51:13.336Z,24.05
2018-09-20T11:53:41.416Z,32.65
2018-09-20T11:56:09.500Z,30.17
2018-09-20T11:58:37.572Z,31.70
2018-09-20T12:01:05.647Z,22.65
2018-09-20T12:03:33.729Z,27.30
2018-09-20T12:06:01.868Z,29.35
2018-09-20T12:08:29.951Z,39.50
2018-09-20T12:10:58.022Z,35.80
2018-09-20T12:13:26.067Z,34.03
2018-09-20T12:15:54.273Z,34.63
2018-09-20T12:18:22.329Z,39.73
2018-09-20T12:20:50.376Z,35.30
2018-09-20T12:23:18.431Z,30.72
2018-09-20T12:25:46.482Z,36.42
2018-09-20T12:28:14.525Z,31.23
2018-09-20T12:30:42.584Z,34.95
2018-09-20T12:33:10.656Z,33.33
2018-09-20T12:35:38.845Z,28.57
2018-09-20T12:38:06.871Z,24.80
2018-09-20T12:40:34.901Z,21.93
2018-09-20T12:43:03.000Z,26.62
2018-09-20T12:45:31.020Z,23.67
2018-09-20T12:47:59.074Z,32.63
2018-09-20T12:50:27.148Z,27.27
2018-09-20T12:52:55.192Z,25.45
2018-09-20T12:55:23.259Z,27.48
2018-09-20T12:57:51.310Z,33.67
2018-09-20T13:00:20.034Z,31.45
2018-09-20T13:02:48.101Z,32.45
2018-09-20T13:05:16.184Z,39.03
2018-09-20T13:07:44.245Z,32.08
2018-09-20T13:10:12.316Z,30.20
2018-09-20T13:12:40.349Z,35.58
2018-09-20T13:15:08.529Z,28.80
2018-09-20T13:17:36.637Z,28.23
2018-09-20T13:20:04.774Z,33.85
2018-09-20T13:22:32.780Z,30.70
2018-09-20T13:25:00.852Z,39.08
2018-09-20T13:27:28.912Z,29.57
2018-09-20T13:29:57.096Z,42.93
2018-09-20T13:32:25.161Z,29.77
2018-09-20T13:34:53.228Z,33.67
2018-09-20T13:37:21.351Z,29.63
2018-09-20T13:39:49.371Z,39.75
2018-09-20T13:42:17.505Z,40.83
2018-09-20T13:44:45.600Z,36.53
2018-09-20T13:47:14.360Z,30.20
2018-09-20T13:49:42.435Z,45.38
2018-09-20T13:52:10.540Z,39.75
2018-09-20T13:54:38.612Z,40.15
2018-09-20T13:57:06.860Z,36.28
2018-09-20T13:59:34.933Z,31.17
2018-09-20T14:02:03.001Z,36.35
2018-09-20T14:04:31.059Z,52.90
2018-09-20T14:06:59.153Z,40.33
2018-09-20T14:09:27.239Z,35.70
2018-09-20T14:11:55.309Z,45.08
2018-09-20T14:14:23.401Z,39.92
2018-09-20T14:16:51.481Z,35.95
2018-09-20T14:19:19.580Z,41.63
2018-09-20T14:21:47.648Z,49.38
2018-09-20T14:24:15.721Z,47.27
2018-09-20T14:26:43.802Z,35.80
2018-09-20T14:29:11.863Z,38.17
2018-09-20T14:31:39.960Z,48.15
2018-09-20T14:34:08.069Z,48.90
2018-09-20T14:36:36.151Z,43.05
2018-09-20T14:39:06.737Z,37.55
2018-09-20T14:41:34.837Z,52.67
2018-09-20T14:44:02.900Z,41.80
2018-09-20T14:46:30.974Z,47.30
2018-09-20T14:48:59.040Z,38.28
2018-09-20T14:51:27.101Z,48.60
2018-09-20T14:53:55.181Z,35.52
2018-09-20T14:56:23.256Z,34.88
2018-09-20T14:58:51.329Z,28.40
2018-09-20T15:01:19.408Z,34.70
2018-09-20T15:03:47.472Z,41.83
2018-09-20T15:06:15.586Z,36.48
2018-09-20T15:08:43.660Z,56.77
2018-09-20T15:11:11.708Z,45.83
2018-09-20T15:13:39.785Z,38.70
2018-09-20T15:16:07.849Z,26.00
2018-09-20T15:18:35.961Z,45.38
2018-09-20T15:21:04.013Z,51.37
2018-09-20T15:23:32.080Z,44.67
2018-09-20T15:26:00.197Z,45.80
2018-09-20T15:28:28.409Z,41.25
2018-09-20T15:30:56.480Z,48.95
2018-09-20T15:33:24.606Z,43.52
2018-09-20T15:35:52.798Z,32.55
2018-09-20T15:38:20.910Z,40.25
2018-09-20T15:40:49.979Z,46.77
2018-09-20T15:43:18.084Z,38.20
2018-09-20T15:45:46.201Z,30.68
2018-09-20T15:48:14.317Z,38.88
2018-09-20T15:50:42.447Z,47.48
2018-09-20T15:53:10.571Z,46.98
2018-09-20T15:55:38.725Z,48.15
2018-09-20T15:58:06.952Z,44.73
2018-09-20T16:00:35.183Z,55.05
2018-09-20T16:03:03.312Z,44.30
2018-09-20T16:05:31.381Z,44.80
2018-09-20T16:07:59.473Z,39.27
2018-09-20T16:10:27.545Z,35.10
2018-09-20T16:12:55.612Z,38.33
2018-09-20T16:15:23.692Z,21.27
2018-09-20T16:17:51.761Z,26.55
2018-09-20T16:20:19.808Z,32.80
2018-09-20T16:22:47.893Z,35.55
2018-09-20T16:25:15.960Z,38.85
2018-09-20T16:27:44.037Z,42.27
2018-09-20T16:30:40.870Z,34.27
2018-09-20T16:34:22.466Z,23.80
2018-09-20T16:37:00.581Z,37.30
2018-09-20T16:39:30.933Z,46.10
2018-09-20T16:42:04.096Z,43.02
2018-09-20T16:44:32.203Z,44.23
2018-09-20T16:47:00.441Z,30.37
2018-09-20T16:49:28.908Z,39.18
2018-09-20T16:51:56.984Z,29.32
2018-09-20T16:54:25.053Z,35.13
2018-09-20T16:56:53.144Z,30.37
2018-09-20T16:59:21.211Z,34.45
2018-09-20T17:01:49.261Z,25.57
2018-09-20T17:04:17.332Z,38.15
2018-09-20T17:06:45.404Z,23.32
2018-09-20T17:09:13.577Z,25.70
2018-09-20T17:11:41.674Z,28.70
2018-09-20T17:14:09.757Z,26.12
2018-09-20T17:16:37.899Z,29.45
2018-09-20T17:19:06.028Z,25.52
2018-09-20T17:21:34.133Z,20.92
2018-09-20T17:24:02.212Z,21.80
2018-09-20T17:26:30.284Z,17.80
2018-09-20T17:28:58.340Z,24.35
2018-09-20T17:31:26.439Z,28.73
2018-09-20T17:33:54.511Z,31.85
2018-09-20T17:36:22.763Z,22.70
2018-09-20T17:38:51.456Z,20.57
2018-09-20T17:41:22.829Z,26.80
2018-09-20T17:43:53.636Z,26.85
2018-09-20T17:46:21.699Z,23.25
2018-09-20T17:48:49.744Z,28.38
2018-09-20T17:51:18.577Z,29.50
2018-09-20T17:53:46.972Z,30.72
2018-09-20T17:56:15.430Z,29.50
2018-09-20T17:58:44.310Z,22.52
2018-09-20T18:01:12.390Z,28.40
2018-09-20T18:03:40.460Z,64.85
2018-09-20T18:06:08.580Z,30.88
2018-09-20T18:08:36.623Z,34.30
2018-09-20T18:11:04.916Z,31.82
2018-09-20T18:13:32.972Z,24.32
2018-09-20T18:16:01.080Z,32.20
2018-09-20T18:18:29.128Z,29.87
2018-09-20T18:20:57.275Z,33.05
2018-09-20T18:23:25.368Z,47.75
2018-09-20T18:25:53.435Z,42.30
2018-09-20T18:28:21.551Z,36.68
2018-09-20T18:30:49.640Z,30.30
2018-09-20T18:33:17.782Z,27.15
2018-09-20T18:35:45.902Z,26.73
2018-09-20T18:38:13.979Z,26.55
2018-09-20T18:40:42.049Z,22.15
2018-09-20T18:43:10.149Z,19.30
2018-09-20T18:45:38.228Z,18.70
2018-09-20T18:48:06.315Z,24.35
2018-09-20T18:50:34.386Z,17.37
2018-09-20T18:53:02.453Z,16.15
2018-09-20T18:55:30.667Z,21.27
2018-09-20T18:57:58.700Z,23.80
2018-09-20T19:00:26.789Z,17.02
2018-09-20T19:02:54.868Z,19.02
2018-09-20T19:05:22.967Z,16.00
2018-09-20T19:07:51.036Z,17.48
2018-09-20T19:10:19.124Z,23.87
2018-09-20T19:12:47.198Z,15.20
2018-09-20T19:15:15.281Z,18.30
2018-09-20T19:17:43.437Z,13.95
2018-09-20T19:20:11.528Z,15.30
2018-09-20T19:22:39.618Z,15.60
2018-09-20T19:25:07.793Z,18.60
2018-09-20T19:27:35.909Z,17.32
2018-09-20T19:30:03.937Z,15.15
2018-09-20T19:32:32.017Z,17.40
2018-09-20T19:35:00.180Z,17.07
2018-09-20T19:37:28.265Z,15.70
2018-09-20T19:39:56.454Z,15.45
2018-09-20T19:42:26.161Z,15.90
2018-09-20T19:44:55.159Z,14.93
2018-09-20T19:47:23.316Z,16.00
2018-09-20T19:49:51.376Z,13.30
2018-09-20T19:52:19.475Z,15.08
2018-09-20T19:54:47.545Z,17.77
2018-09-20T19:57:15.760Z,15.83
2018-09-20T19:59:43.836Z,14.23
2018-09-20T20:02:12.941Z,13.75
2018-09-20T20:04:41.032Z,12.65
2018-09-20T20:07:09.112Z,12.63
2018-09-20T20:09:37.222Z,11.45
2018-09-20T20:12:05.499Z,15.35
2018-09-20T20:14:33.585Z,15.30
2018-09-20T20:17:01.688Z,15.30
2018-09-20T20:19:29.809Z,14.05
2018-09-20T20:21:57.836Z,17.48
2018-09-20T20:24:25.925Z,16.60
2018-09-20T20:26:53.992Z,25.60
2018-09-20T20:29:22.090Z,17.00
2018-09-20T20:31:50.164Z,14.40
2018-09-20T20:34:18.237Z,13.80
2018-09-20T20:36:46.304Z,10.78
2018-09-20T20:39:14.393Z,14.28
2018-09-20T20:41:42.470Z,18.00
2018-09-20T20:44:10.552Z,13.50
2018-09-20T20:46:38.624Z,12.75
2018-09-20T20:49:06.692Z,15.30
2018-09-20T20:51:34.765Z,16.70
2018-09-20T20:54:02.844Z,15.15
2018-09-20T20:56:30.907Z,18.37
2018-09-20T20:58:58.976Z,13.95
2018-09-20T21:01:27.045Z,12.45
2018-09-20T21:03:55.106Z,13.32
2018-09-20T21:06:23.178Z,11.95
2018-09-20T21:08:51.256Z,12.70
2018-09-20T21:11:19.297Z,16.05
2018-09-20T21:13:47.672Z,14.25
2018-09-20T21:16:15.732Z,15.55
2018-09-20T21:18:43.816Z,11.40
2018-09-20T21:21:11.940Z,12.10
2018-09-20T21:23:40.009Z,13.83
2018-09-20T21:26:08.139Z,11.63
2018-09-20T21:28:36.162Z,8.00
2018-09-20T21:31:04.269Z,12.43
2018-09-20T21:33:32.345Z,9.30
2018-09-20T21:36:00.420Z,13.53
2018-09-20T21:38:28.504Z,14.23
2018-09-20T21:40:56.577Z,9.55
2018-09-20T21:43:24.653Z,8.53
2018-09-20T21:45:52.724Z,13.95
2018-09-20T21:48:20.784Z,10.45
2018-09-20T21:50:48.864Z,11.33
2018-09-20T21:53:16.916Z,8.40
2018-09-20T21:55:44.973Z,11.25
2018-09-20T21:58:13.045Z,17.10
2018-09-20T22:00:41.117Z,12.35
2018-09-20T22:03:09.168Z,11.05
2018-09-20T22:05:37.260Z,15.00
2018-09-20T22:08:05.300Z,10.90
2018-09-20T22:10:33.377Z,10.10
2018-09-20T22:13:01.449Z,11.65
2018-09-20T22:15:30.270Z,19.92
2018-09-20T22:17:58.935Z,13.62
2018-09-20T22:20:28.440Z,15.45
2018-09-20T22:22:56.493Z,16.42
2018-09-20T22:25:24.589Z,13.70
2018-09-20T22:27:52.689Z,15.88
2018-09-20T22:30:21.045Z,12.63
2018-09-20T22:32:49.145Z,17.07
2018-09-20T22:35:17.232Z,13.20
2018-09-20T22:37:45.296Z,11.15
2018-09-20T22:40:13.382Z,12.20
2018-09-20T22:42:41.462Z,9.05
2018-09-20T22:45:09.527Z,12.98
2018-09-20T22:47:37.581Z,13.53
2018-09-20T22:50:05.708Z,11.65
2018-09-20T22:52:33.764Z,10.20
2018-09-20T22:55:01.845Z,13.20
2018-09-20T22:57:29.966Z,11.70
2018-09-20T22:59:58.015Z,8.30
2018-09-20T23:02:26.097Z,12.10
2018-09-20T23:04:54.196Z,11.30
2018-09-20T23:07:22.245Z,10.75
2018-09-20T23:09:50.312Z,10.50
2018-09-20T23:12:18.360Z,9.63
2018-09-20T23:14:46.444Z,8.33
2018-09-20T23:17:14.491Z,8.45
2018-09-20T23:19:42.544Z,10.75
2018-09-20T23:22:10.596Z,6.47
2018-09-20T23:24:38.648Z,12.35
2018-09-20T23:27:06.720Z,9.13
2018-09-20T23:29:34.772Z,8.95
2018-09-20T23:32:02.828Z,9.03
2018-09-20T23:34:30.864Z,6.55
2018-09-20T23:36:58.940Z,10.05
2018-09-20T23:39:26.981Z,6.83
2018-09-20T23:41:55.047Z,12.65
2018-09-20T23:44:23.087Z,13.55
2018-09-20T23:46:51.140Z,8.30
2018-09-20T23:49:19.204Z,11.90
2018-09-20T23:51:47.261Z,8.10
2018-09-20T23:54:15.305Z,9.90
2018-09-20T23:56:43.354Z,10.13
2018-09-20T23:59:11.400Z,8.70
